createdAt,value
2022-10-23T00:01:44.995Z,99436.31
2022-10-23T00:04:14.798Z,99456.84
2022-10-23T00:06:43.266Z,99373.59
2022-10-23T00:09:12.816Z,99425.19
2022-10-23T00:11:41.494Z,99407.16
2022-10-23T00:14:09.237Z,99425.38
2022-10-23T00:16:36.173Z,99408.97
2022-10-23T00:19:04.165Z,99431.94
2022-10-23T00:21:32.693Z,99430.03
2022-10-23T00:23:59.914Z,99351.53
2022-10-23T00:26:26.980Z,99405.34
2022-10-23T00:28:55.262Z,99379.16
2022-10-23T00:31:23.568Z,99424.53
2022-10-23T00:33:51.601Z,99410.13
2022-10-23T00:36:20.796Z,99403.22
2022-10-23T00:38:48.704Z,99422.13
2022-10-23T00:41:19.389Z,99385.13
2022-10-23T00:44:23.294Z,99387.28
2022-10-23T00:46:50.186Z,99403.66
2022-10-23T00:49:17.726Z,99398.03
2022-10-23T00:51:50.687Z,99398.66
2022-10-23T00:54:25.073Z,99396.00
2022-10-23T00:56:56.177Z,99408.06
2022-10-23T00:59:23.593Z,99396.94
2022-10-23T01:01:50.452Z,99392.63
2022-10-23T01:04:17.398Z,99398.03
2022-10-23T01:06:50.974Z,99382.94
2022-10-23T01:09:20.652Z,99399.97
2022-10-23T01:11:55.847Z,99384.56
2022-10-23T01:14:31.721Z,99382.38
2022-10-23T01:17:11.868Z,99386.56
2022-10-23T01:20:05.119Z,99375.59
2022-10-23T01:22:49.962Z,99395.00
2022-10-23T01:25:19.329Z,99395.00
2022-10-23T01:27:50.095Z,99367.28
2022-10-23T01:30:18.006Z,99382.13
2022-10-23T01:32:48.461Z,99364.38
2022-10-23T01:35:22.263Z,99369.44
2022-10-23T01:38:00.977Z,99378.31
2022-10-23T01:40:53.974Z,99381.56
2022-10-23T01:43:27.359Z,99375.75
2022-10-23T01:45:59.542Z,99356.06
2022-10-23T01:48:32.252Z,99357.38
2022-10-23T01:51:05.545Z,99349.28
2022-10-23T01:53:36.305Z,99350.00
2022-10-23T01:56:07.376Z,99359.53
2022-10-23T01:58:36.216Z,99373.97
2022-10-23T02:01:06.230Z,99349.47
2022-10-23T02:03:33.611Z,99364.47
2022-10-23T02:06:00.404Z,99335.44
2022-10-23T02:08:28.034Z,99332.31
2022-10-23T02:11:13.271Z,99363.13
2022-10-23T02:13:49.545Z,99335.06
2022-10-23T02:16:22.119Z,99332.53
2022-10-23T02:19:02.718Z,99325.53
2022-10-23T02:21:50.527Z,99370.28
2022-10-23T02:24:24.573Z,99310.47
2022-10-23T02:26:57.167Z,99326.53
2022-10-23T02:29:33.003Z,99329.78
2022-10-23T02:31:59.875Z,99336.66
2022-10-23T02:34:26.928Z,99309.47
2022-10-23T02:36:53.995Z,99318.41
2022-10-23T02:39:25.318Z,99296.03
2022-10-23T02:42:01.214Z,99314.13
2022-10-23T02:44:48.100Z,99274.31
2022-10-23T02:47:43.130Z,99246.22
2022-10-23T02:50:33.350Z,99267.81
2022-10-23T02:53:21.342Z,99282.63
2022-10-23T02:56:08.833Z,99269.81
2022-10-23T02:58:48.495Z,99309.97
2022-10-23T03:01:20.135Z,99273.13
2022-10-23T03:03:54.345Z,99280.25
2022-10-23T03:06:22.902Z,99304.81
2022-10-23T03:09:00.041Z,99270.63
2022-10-23T03:11:26.990Z,99271.06
2022-10-23T03:13:53.663Z,99295.75
2022-10-23T03:16:20.530Z,99303.56
2022-10-23T03:18:47.346Z,99287.91
2022-10-23T03:21:14.063Z,99305.69
2022-10-23T03:23:40.895Z,99280.09
2022-10-23T03:26:07.914Z,99300.63
2022-10-23T03:28:35.636Z,99314.75
2022-10-23T03:31:03.146Z,99301.88
2022-10-23T03:33:31.110Z,99282.25
2022-10-23T03:35:57.939Z,99276.19
2022-10-23T03:38:24.811Z,99267.75
2022-10-23T03:40:51.585Z,99205.81
2022-10-23T03:43:18.310Z,99213.13
2022-10-23T03:45:45.092Z,99258.72
2022-10-23T03:48:11.919Z,99256.69
2022-10-23T03:50:38.610Z,99231.91
2022-10-23T03:53:05.521Z,99260.94
2022-10-23T03:55:32.417Z,99245.97
2022-10-23T03:57:59.165Z,99296.50
2022-10-23T04:00:26.001Z,99290.25
2022-10-23T04:02:52.690Z,99319.16
2022-10-23T04:05:19.401Z,99329.41
2022-10-23T04:07:46.216Z,99394.09
2022-10-23T04:10:13.034Z,99383.78
2022-10-23T04:12:39.889Z,99349.28
2022-10-23T04:15:07.397Z,99356.88
2022-10-23T04:17:34.227Z,99376.38
2022-10-23T04:20:00.944Z,99366.47
2022-10-23T04:22:28.611Z,99364.66
2022-10-23T04:24:55.851Z,99371.38
2022-10-23T04:27:23.181Z,99393.06
2022-10-23T04:29:50.579Z,99413.34
2022-10-23T04:32:18.320Z,99404.78
2022-10-23T04:34:45.029Z,99407.06
2022-10-23T04:37:11.760Z,99414.66
2022-10-23T04:39:38.479Z,99403.00
2022-10-23T04:42:05.328Z,99409.56
2022-10-23T04:44:32.058Z,99402.31
2022-10-23T04:46:58.826Z,99395.34
2022-10-23T04:49:25.618Z,99394.16
2022-10-23T04:51:52.430Z,99434.97
2022-10-23T04:54:19.108Z,99422.34
2022-10-23T04:56:45.837Z,99405.72
2022-10-23T04:59:12.678Z,99415.25
2022-10-23T05:01:39.518Z,99425.41
2022-10-23T05:04:06.321Z,99414.66
2022-10-23T05:06:33.204Z,99380.44
2022-10-23T05:09:00.009Z,99437.13
2022-10-23T05:11:26.737Z,99455.94
2022-10-23T05:13:53.587Z,99458.03
2022-10-23T05:16:37.219Z,99492.94
2022-10-23T05:19:07.247Z,99484.59
2022-10-23T05:21:35.510Z,99468.78
2022-10-23T05:24:02.402Z,99488.06
2022-10-23T05:26:31.595Z,99488.28
2022-10-23T05:28:58.363Z,99496.84
2022-10-23T05:31:25.986Z,99494.25
2022-10-23T05:33:55.644Z,99558.16
2022-10-23T05:36:24.226Z,99505.41
2022-10-23T05:38:51.328Z,99504.75
2022-10-23T05:41:18.420Z,99522.91
2022-10-23T05:43:46.342Z,99518.69
2022-10-23T05:46:13.311Z,99523.91
2022-10-23T05:48:40.120Z,99540.81
2022-10-23T05:51:09.249Z,99544.00
2022-10-23T05:53:38.767Z,99540.34
2022-10-23T05:56:09.670Z,99538.50
2022-10-23T05:58:36.490Z,99547.63
2022-10-23T06:01:11.223Z,99557.53
2022-10-23T06:03:38.989Z,99524.00
2022-10-23T06:06:07.401Z,99547.50
2022-10-23T06:08:37.418Z,99550.19
2022-10-23T06:11:11.313Z,99551.63
2022-10-23T06:13:38.487Z,99561.44
2022-10-23T06:16:18.669Z,99543.72
2022-10-23T06:18:46.721Z,99549.13
2022-10-23T06:21:14.342Z,99578.75
2022-10-23T06:23:42.229Z,99584.63
2022-10-23T06:26:12.685Z,99568.84
2022-10-23T06:28:39.945Z,99569.75
2022-10-23T06:31:08.681Z,99569.72
2022-10-23T06:33:36.005Z,99557.31
2022-10-23T06:36:03.767Z,99578.34
2022-10-23T06:38:36.718Z,99580.22
2022-10-23T06:41:05.147Z,99576.22
2022-10-23T06:43:31.870Z,99574.56
2022-10-23T06:46:04.142Z,99576.22
2022-10-23T06:48:32.007Z,99574.56
2022-10-23T06:50:59.730Z,99601.38
2022-10-23T06:53:26.653Z,99606.53
2022-10-23T06:55:55.500Z,99595.25
2022-10-23T06:58:22.464Z,99603.72
2022-10-23T07:00:49.285Z,99600.56
2022-10-23T07:03:16.117Z,99608.94
2022-10-23T07:05:44.938Z,99610.25
2022-10-23T07:08:11.875Z,99598.22
2022-10-23T07:10:38.812Z,99616.94
2022-10-23T07:13:05.575Z,99616.94
2022-10-23T07:15:32.389Z,99613.00
2022-10-23T07:17:59.085Z,99632.84
2022-10-23T07:20:26.107Z,99635.59
2022-10-23T07:22:54.804Z,99629.16
2022-10-23T07:25:22.840Z,99639.44
2022-10-23T07:27:50.384Z,99627.34
2022-10-23T07:30:17.683Z,99641.78
2022-10-23T07:32:44.896Z,99615.88
2022-10-23T07:37:45.030Z,99648.06
2022-10-23T07:40:12.700Z,99662.59
2022-10-23T07:42:39.473Z,99663.22
2022-10-23T07:45:09.013Z,99658.00
2022-10-23T07:47:35.718Z,99681.03
2022-10-23T07:50:02.487Z,99655.47
2022-10-23T07:52:32.088Z,99661.81
2022-10-23T07:55:02.002Z,99668.09
2022-10-23T07:57:28.698Z,99703.59
2022-10-23T07:59:55.516Z,99680.63
2022-10-23T08:02:22.343Z,99688.47
2022-10-23T08:04:50.271Z,99683.09
2022-10-23T08:07:17.136Z,99697.38
2022-10-23T08:09:43.856Z,99701.78
2022-10-23T08:12:10.565Z,99697.50
2022-10-23T08:14:39.254Z,99715.22
2022-10-23T08:17:09.847Z,99697.63
2022-10-23T08:19:37.022Z,99675.91
2022-10-23T08:22:04.098Z,99714.63
2022-10-23T08:24:31.246Z,99726.09
2022-10-23T08:26:58.816Z,99723.09
2022-10-23T08:29:25.780Z,99724.78
2022-10-23T08:31:57.516Z,99724.19
2022-10-23T08:34:24.526Z,99746.75
2022-10-23T08:36:51.485Z,99742.97
2022-10-23T08:39:18.246Z,99738.22
2022-10-23T08:41:51.217Z,99756.13
2022-10-23T08:44:40.508Z,99754.56
2022-10-23T08:47:11.858Z,99768.50
2022-10-23T08:49:52.246Z,99761.91
2022-10-23T08:52:39.625Z,99757.97
2022-10-23T08:55:15.385Z,99772.84
2022-10-23T08:57:51.751Z,99774.84
2022-10-23T09:00:19.516Z,99744.69
2022-10-23T09:02:51.549Z,99772.19
2022-10-23T09:05:50.800Z,99777.00
2022-10-23T09:09:12.796Z,99773.00
2022-10-23T09:11:50.945Z,99780.13
2022-10-23T09:14:25.169Z,99776.97
2022-10-23T09:17:07.171Z,99772.66
2022-10-23T09:19:33.914Z,99789.91
2022-10-23T09:22:01.249Z,99825.34
2022-10-23T09:24:31.977Z,99817.91
2022-10-23T09:27:01.129Z,99826.16
2022-10-23T09:29:36.067Z,99826.00
2022-10-23T09:32:05.833Z,99824.72
2022-10-23T09:34:34.991Z,99823.06
2022-10-23T09:37:21.502Z,99840.75
2022-10-23T09:39:48.432Z,99832.16
2022-10-23T09:42:25.060Z,99816.78
2022-10-23T09:44:54.176Z,99818.75
2022-10-23T09:47:24.456Z,99822.91
2022-10-23T09:49:57.304Z,99818.75
2022-10-23T09:52:28.414Z,99830.22
2022-10-23T09:54:58.636Z,99835.00
2022-10-23T09:57:42.853Z,99841.91
2022-10-23T10:00:16.441Z,99843.81
2022-10-23T10:02:54.914Z,99841.19
2022-10-23T10:05:24.957Z,99850.97
2022-10-23T10:08:00.242Z,99851.88
2022-10-23T10:10:34.994Z,99842.03
2022-10-23T10:13:19.138Z,99848.38
2022-10-23T10:15:55.466Z,99869.50
2022-10-23T10:18:37.333Z,99856.56
2022-10-23T10:21:14.051Z,99842.81
2022-10-23T10:24:00.565Z,99860.03
2022-10-23T10:26:45.544Z,99860.78
2022-10-23T10:29:16.670Z,99849.69
2022-10-23T10:32:02.217Z,99840.16
2022-10-23T10:34:46.574Z,99844.38
2022-10-23T10:37:29.742Z,99866.28
2022-10-23T10:40:02.401Z,99872.88
2022-10-23T10:42:50.170Z,99852.59
2022-10-23T10:45:30.297Z,99856.97
2022-10-23T10:48:15.760Z,99865.75
2022-10-23T10:51:05.914Z,99874.28
2022-10-23T10:53:47.826Z,99880.59
2022-10-23T10:56:18.621Z,99881.97
2022-10-23T10:58:59.582Z,99899.50
2022-10-23T11:01:56.747Z,99895.66
2022-10-23T11:04:41.163Z,99897.09
2022-10-23T11:07:13.311Z,99903.41
2022-10-23T11:09:41.746Z,99902.09
2022-10-23T11:12:18.058Z,99901.75
2022-10-23T11:14:45.340Z,99900.53
2022-10-23T11:17:25.529Z,99891.81
2022-10-23T11:20:04.314Z,99906.06
2022-10-23T11:22:46.901Z,99879.94
2022-10-23T11:25:35.169Z,99893.19
2022-10-23T11:28:19.445Z,99902.84
2022-10-23T11:31:12.344Z,99910.31
2022-10-23T11:33:47.790Z,99911.09
2022-10-23T11:36:41.379Z,99910.94
2022-10-23T11:39:21.873Z,99891.03
2022-10-23T11:41:56.185Z,99899.75
2022-10-23T11:44:36.768Z,99901.69
2022-10-23T11:47:37.961Z,99914.44
2022-10-23T11:50:09.242Z,99910.28
2022-10-23T11:52:45.700Z,99916.94
2022-10-23T11:55:27.866Z,99911.97
2022-10-23T11:58:24.274Z,99929.41
2022-10-23T12:01:25.681Z,99915.97
2022-10-23T12:04:00.938Z,99925.94
2022-10-23T12:06:31.493Z,99923.75
2022-10-23T12:09:03.697Z,99911.66
2022-10-23T12:11:47.449Z,99910.59
2022-10-23T12:14:36.445Z,99914.19
2022-10-23T12:17:18.946Z,99924.72
2022-10-23T12:19:51.688Z,99918.44
2022-10-23T12:22:20.999Z,99923.69
2022-10-23T12:24:53.790Z,99920.47
2022-10-23T12:27:39.965Z,99905.56
2022-10-23T12:30:14.808Z,99908.56
2022-10-23T12:32:47.543Z,99908.91
2022-10-23T12:35:47.801Z,99894.66
2022-10-23T12:38:22.440Z,99891.25
2022-10-23T12:40:55.585Z,99891.16
2022-10-23T12:43:25.337Z,99897.91
2022-10-23T12:45:53.027Z,99893.22
2022-10-23T12:48:22.613Z,99881.31
2022-10-23T12:50:55.175Z,99900.59
2022-10-23T12:53:23.811Z,99895.56
2022-10-23T12:58:32.943Z,99893.53
2022-10-23T13:01:03.128Z,99907.00
2022-10-23T13:03:32.069Z,99898.50
2022-10-23T13:06:00.170Z,99903.69
2022-10-23T13:08:33.914Z,99922.72
2022-10-23T13:11:01.065Z,99935.50
2022-10-23T13:13:28.249Z,99932.22
2022-10-23T13:15:54.995Z,99929.63
2022-10-23T13:18:21.871Z,99925.69
2022-10-23T13:20:51.719Z,99909.75
2022-10-23T13:23:18.720Z,99911.38
2022-10-23T13:26:03.373Z,99890.94
2022-10-23T13:28:44.690Z,99902.50
2022-10-23T13:31:12.509Z,99919.16
2022-10-23T13:33:41.560Z,99910.50
2022-10-23T13:36:14.149Z,99904.72
2022-10-23T13:38:46.096Z,99902.91
2022-10-23T13:41:18.318Z,99918.22
2022-10-23T13:43:46.628Z,99908.41
2022-10-23T13:46:18.354Z,99889.78
2022-10-23T13:48:45.469Z,99891.44
2022-10-23T13:51:14.717Z,99893.81
2022-10-23T13:53:41.833Z,99898.28
2022-10-23T13:56:12.000Z,99882.50
2022-10-23T13:58:39.276Z,99899.22
2022-10-23T14:01:07.333Z,99903.00
2022-10-23T14:03:34.141Z,99908.66
2022-10-23T14:06:01.470Z,99922.34
2022-10-23T14:08:28.308Z,99909.34
2022-10-23T14:10:55.001Z,99905.81
2022-10-23T14:13:21.789Z,99909.63
2022-10-23T14:15:54.613Z,99908.53
2022-10-23T14:18:21.989Z,99904.88
2022-10-23T14:20:49.221Z,99903.56
2022-10-23T14:23:16.063Z,99914.56
2022-10-23T14:25:42.798Z,99911.13
2022-10-23T14:28:10.021Z,99921.16
2022-10-23T14:30:39.508Z,99927.72
2022-10-23T14:33:06.285Z,99925.72
2022-10-23T14:35:33.016Z,99914.44
2022-10-23T14:37:59.908Z,99922.69
2022-10-23T14:40:26.620Z,99931.69
2022-10-23T14:42:53.322Z,99930.22
2022-10-23T14:45:20.210Z,99934.03
2022-10-23T14:47:47.056Z,99935.59
2022-10-23T14:50:14.220Z,99932.91
2022-10-23T14:52:41.055Z,99944.00
2022-10-23T14:55:08.264Z,99938.47
2022-10-23T14:57:35.024Z,99925.88
2022-10-23T15:00:01.936Z,99945.88
2022-10-23T15:02:28.601Z,99960.97
2022-10-23T15:04:55.573Z,99950.38
2022-10-23T15:07:22.438Z,99971.69
2022-10-23T15:09:50.783Z,99952.88
2022-10-23T15:12:18.198Z,99950.28
2022-10-23T15:14:45.010Z,99971.34
2022-10-23T15:17:15.432Z,99965.19
2022-10-23T15:19:42.787Z,99954.25
2022-10-23T15:22:09.855Z,99961.94
2022-10-23T15:24:36.760Z,99971.88
2022-10-23T15:27:03.598Z,99967.38
2022-10-23T15:29:30.384Z,99968.06
2022-10-23T15:32:01.572Z,99954.63
2022-10-23T15:34:29.396Z,99957.91
2022-10-23T15:36:57.727Z,99963.09
2022-10-23T15:39:27.737Z,99962.31
2022-10-23T15:41:55.520Z,99964.44
2022-10-23T15:44:25.177Z,99963.91
2022-10-23T15:46:52.257Z,99969.00
2022-10-23T15:49:19.758Z,99960.53
2022-10-23T15:51:47.023Z,99964.31
2022-10-23T15:54:18.467Z,99957.94
2022-10-23T15:56:47.382Z,99963.28
2022-10-23T15:59:14.884Z,99960.91
2022-10-23T16:01:41.843Z,99971.88
2022-10-23T16:04:08.840Z,99975.19
2022-10-23T16:06:35.664Z,99968.22
2022-10-23T16:09:02.843Z,99974.38
2022-10-23T16:11:33.905Z,99968.16
2022-10-23T16:14:00.845Z,99980.16
2022-10-23T16:16:28.347Z,99981.59
2022-10-23T16:18:55.160Z,99995.00
2022-10-23T16:21:28.112Z,99978.25
2022-10-23T16:23:57.406Z,99983.69
2022-10-23T16:26:24.157Z,99990.25
2022-10-23T16:28:55.555Z,99979.13
2022-10-23T16:31:24.043Z,99995.00
2022-10-23T16:33:52.532Z,99981.53
2022-10-23T16:36:20.743Z,99985.47
2022-10-23T16:38:47.567Z,99984.53
2022-10-23T16:41:14.372Z,99991.34
2022-10-23T16:43:41.150Z,99980.41
2022-10-23T16:46:13.026Z,99975.63
2022-10-23T16:48:40.610Z,99992.72
2022-10-23T16:51:09.523Z,99999.13
2022-10-23T16:53:38.377Z,99991.97
2022-10-23T16:56:07.361Z,100001.75
2022-10-23T16:58:34.449Z,100010.91
2022-10-23T17:01:02.635Z,100016.56
2022-10-23T17:03:30.298Z,100006.34
2022-10-23T17:06:01.958Z,100010.06
2022-10-23T17:08:29.394Z,100019.53
2022-10-23T17:11:18.035Z,100014.31
2022-10-23T17:13:48.359Z,100014.31
2022-10-23T17:16:16.966Z,100025.78
2022-10-23T17:18:44.847Z,100033.09
2022-10-23T17:21:13.497Z,100029.78
2022-10-23T17:23:41.028Z,100029.63
2022-10-23T17:26:12.467Z,100003.81
2022-10-23T17:28:42.492Z,100017.28
2022-10-23T17:31:41.354Z,100037.22
2022-10-23T17:34:12.642Z,100028.25
2022-10-23T17:36:45.943Z,100023.44
2022-10-23T17:39:15.731Z,100048.00
2022-10-23T17:41:42.987Z,100040.19
2022-10-23T17:44:10.844Z,100053.63
2022-10-23T17:46:37.757Z,100050.81
2022-10-23T17:49:05.274Z,100046.00
2022-10-23T17:51:34.403Z,100048.47
2022-10-23T17:54:06.478Z,100057.75
2022-10-23T17:56:34.636Z,100052.97
2022-10-23T17:59:05.230Z,100051.78
2022-10-23T18:01:32.581Z,100052.63
2022-10-23T18:04:01.558Z,100053.13
2022-10-23T18:06:35.366Z,100054.41
2022-10-23T18:09:04.206Z,100061.22
2022-10-23T18:11:37.343Z,100067.84
2022-10-23T18:14:06.350Z,100073.97
2022-10-23T18:16:34.727Z,100071.13
2022-10-23T18:19:02.239Z,100073.13
2022-10-23T18:21:29.070Z,100068.66
2022-10-23T18:23:58.013Z,100080.41
2022-10-23T18:26:28.040Z,100071.28
2022-10-23T18:28:57.242Z,100070.00
2022-10-23T18:31:25.932Z,100083.75
2022-10-23T18:34:12.111Z,100081.09
2022-10-23T18:36:40.758Z,100094.72
2022-10-23T18:39:09.909Z,100092.53
2022-10-23T18:41:40.101Z,100102.84
2022-10-23T18:44:07.768Z,100107.50
2022-10-23T18:46:35.489Z,100097.22
2022-10-23T18:49:02.500Z,100118.47
2022-10-23T18:51:32.803Z,100106.50
2022-10-23T18:54:05.867Z,100112.47
2022-10-23T18:56:34.225Z,100117.13
2022-10-23T18:59:03.211Z,100117.66
2022-10-23T19:01:31.012Z,100121.59
2022-10-23T19:03:59.469Z,100128.75
2022-10-23T19:06:26.202Z,100133.03
2022-10-23T19:08:53.161Z,100136.72
2022-10-23T19:11:21.852Z,100132.38
2022-10-23T19:13:48.668Z,100130.38
2022-10-23T19:16:19.855Z,100133.22
2022-10-23T19:18:51.451Z,100134.06
2022-10-23T19:21:22.273Z,100127.25
2022-10-23T19:23:49.736Z,100133.56
2022-10-23T19:26:16.905Z,100141.66
2022-10-23T19:28:48.477Z,100147.50
2022-10-23T19:31:15.465Z,100141.69
2022-10-23T19:33:42.397Z,100152.63
2022-10-23T19:36:13.840Z,100161.09
2022-10-23T19:38:42.263Z,100162.75
2022-10-23T19:41:09.667Z,100161.75
2022-10-23T19:43:37.857Z,100152.31
2022-10-23T19:46:09.255Z,100140.16
2022-10-23T19:48:42.670Z,100147.63
2022-10-23T19:51:09.616Z,100162.19
2022-10-23T19:53:36.813Z,100165.13
2022-10-23T19:56:05.710Z,100150.06
2022-10-23T19:58:32.630Z,100160.81
2022-10-23T20:00:59.700Z,100159.66
2022-10-23T20:03:26.603Z,100154.69
2022-10-23T20:05:53.323Z,100162.50
2022-10-23T20:08:20.029Z,100158.16
2022-10-23T20:10:48.192Z,100157.84
2022-10-23T20:13:20.275Z,100139.78
2022-10-23T20:15:47.502Z,100156.69
2022-10-23T20:18:14.378Z,100166.78
2022-10-23T20:20:42.370Z,100165.31
2022-10-23T20:23:09.305Z,100168.94
2022-10-23T20:25:36.116Z,100164.16
2022-10-23T20:28:03.883Z,100166.66
2022-10-23T20:30:30.738Z,100171.28
2022-10-23T20:32:57.602Z,100159.19
2022-10-23T20:35:24.374Z,100168.94
2022-10-23T20:37:51.047Z,100174.59
2022-10-23T20:40:17.799Z,100177.56
2022-10-23T20:42:44.509Z,100159.53
2022-10-23T20:45:11.241Z,100169.00
2022-10-23T20:47:39.104Z,100174.28
2022-10-23T20:50:06.283Z,100162.19
2022-10-23T20:55:05.001Z,100187.72
2022-10-23T20:57:31.738Z,100191.06
2022-10-23T20:59:59.408Z,100191.53
2022-10-23T21:02:26.484Z,100192.56
2022-10-23T21:04:53.316Z,100186.28
2022-10-23T21:07:20.987Z,100193.53
2022-10-23T21:09:47.828Z,100193.66
2022-10-23T21:12:14.636Z,100193.94
2022-10-23T21:14:41.404Z,100193.47
2022-10-23T21:17:09.158Z,100194.47
2022-10-23T21:19:36.687Z,100185.16
2022-10-23T21:22:03.666Z,100211.38
2022-10-23T21:24:30.692Z,100176.06
2022-10-23T21:26:57.408Z,100201.56
2022-10-23T21:29:24.112Z,100199.38
2022-10-23T21:31:56.788Z,100194.41
2022-10-23T21:34:25.090Z,100208.94
2022-10-23T21:37:12.845Z,100217.41
2022-10-23T21:39:39.057Z,100217.22
2022-10-23T21:42:06.003Z,100216.22
2022-10-23T21:44:32.874Z,100219.97
2022-10-23T21:47:00.849Z,100213.34
2022-10-23T21:49:27.570Z,100221.03
2022-10-23T21:51:55.234Z,100210.94
2022-10-23T21:54:22.592Z,100214.59
2022-10-23T21:56:51.219Z,100210.31
2022-10-23T21:59:20.907Z,100208.13
2022-10-23T22:01:49.361Z,100214.16
2022-10-23T22:04:18.658Z,100203.72
2022-10-23T22:06:47.176Z,100213.84
2022-10-23T22:09:17.672Z,100208.53
2022-10-23T22:11:44.451Z,100207.41
2022-10-23T22:14:11.274Z,100211.88
2022-10-23T22:16:38.232Z,100210.41
2022-10-23T22:19:05.239Z,100196.16
2022-10-23T22:21:31.999Z,100207.44
2022-10-23T22:24:00.922Z,100207.47
2022-10-23T22:26:29.597Z,100199.38
2022-10-23T22:28:59.193Z,100198.41
2022-10-23T22:31:29.213Z,100200.41
2022-10-23T22:33:56.551Z,100213.88
2022-10-23T22:36:23.446Z,100218.75
2022-10-23T22:38:50.426Z,100217.94
2022-10-23T22:41:17.689Z,100219.59
2022-10-23T22:43:44.736Z,100223.56
2022-10-23T22:46:19.061Z,100214.44
2022-10-23T22:48:46.132Z,100213.41
2022-10-23T22:51:16.021Z,100212.94
2022-10-23T22:53:44.047Z,100208.78
2022-10-23T22:56:14.264Z,100209.34
2022-10-23T22:58:41.189Z,100217.28
2022-10-23T23:01:13.857Z,100205.13
2022-10-23T23:03:40.843Z,100220.75
2022-10-23T23:06:09.186Z,100217.75
2022-10-23T23:08:37.928Z,100209.22
2022-10-23T23:11:06.019Z,100216.34
2022-10-23T23:13:32.862Z,100219.19
2022-10-23T23:15:59.978Z,100213.31
2022-10-23T23:18:27.425Z,100213.41
2022-10-23T23:20:54.259Z,100214.28
2022-10-23T23:23:21.365Z,100215.84
2022-10-23T23:25:49.997Z,100208.22
2022-10-23T23:28:20.574Z,100203.50
2022-10-23T23:30:47.858Z,100217.88
2022-10-23T23:33:16.667Z,100211.72
2022-10-23T23:35:46.036Z,100218.22
2022-10-23T23:38:13.745Z,100226.50
2022-10-23T23:40:40.557Z,100221.75
2022-10-23T23:43:07.369Z,100215.13
2022-10-23T23:45:34.261Z,100214.13
2022-10-23T23:48:00.999Z,100227.09
2022-10-23T23:50:28.165Z,100207.84
2022-10-23T23:52:55.048Z,100212.03
2022-10-23T23:55:22.006Z,100218.31
2022-10-23T23:57:48.702Z,100214.47
